createdAt,value
2023-01-26T00:00:26.706Z,36.72
2023-01-26T00:00:59.947Z,40.55
2023-01-26T00:01:31.851Z,44.22
2023-01-26T00:02:03.951Z,35.97
2023-01-26T00:02:36.027Z,42.03
2023-01-26T00:03:07.923Z,40.47
2023-01-26T00:03:40.200Z,42.45
2023-01-26T00:04:12.759Z,36.33
2023-01-26T00:04:44.677Z,36.72
2023-01-26T00:05:16.603Z,39.00
2023-01-26T00:05:48.801Z,38.35
2023-01-26T00:06:22.312Z,38.17
2023-01-26T00:06:54.189Z,39.85
2023-01-26T00:07:26.002Z,40.15
2023-01-26T00:07:58.226Z,38.05
2023-01-26T00:08:30.087Z,41.50
2023-01-26T00:09:01.977Z,39.65
2023-01-26T00:09:33.785Z,39.50
2023-01-26T00:10:05.897Z,40.78
2023-01-26T00:10:38.605Z,42.67
2023-01-26T00:11:13.324Z,39.10
2023-01-26T00:11:45.548Z,44.80
2023-01-26T00:12:17.498Z,39.28
2023-01-26T00:12:49.388Z,42.92
2023-01-26T00:13:22.581Z,41.03
2023-01-26T00:13:56.192Z,42.53
2023-01-26T00:14:28.190Z,38.70
2023-01-26T00:15:00.098Z,40.45
2023-01-26T00:15:33.421Z,40.33
2023-01-26T00:16:08.292Z,41.15
2023-01-26T00:16:40.242Z,39.20
2023-01-26T00:17:12.476Z,39.45
2023-01-26T00:17:44.967Z,38.20
2023-01-26T00:18:16.892Z,37.50
2023-01-26T00:18:48.806Z,46.75
2023-01-26T00:19:20.646Z,45.30
2023-01-26T00:19:55.084Z,40.58
2023-01-26T00:20:27.845Z,46.28
2023-01-26T00:21:01.618Z,48.80
2023-01-26T00:21:33.509Z,39.80
2023-01-26T00:22:05.447Z,39.30
2023-01-26T00:22:37.652Z,39.95
2023-01-26T00:23:09.495Z,34.78
2023-01-26T00:23:41.937Z,34.72
2023-01-26T00:24:13.974Z,32.92
2023-01-26T00:24:45.985Z,30.27
2023-01-26T00:25:18.032Z,31.10
2023-01-26T00:25:49.918Z,27.35
2023-01-26T00:26:27.043Z,28.55
2023-01-26T00:26:58.993Z,30.00
2023-01-26T00:27:32.948Z,35.33
2023-01-26T00:28:05.612Z,34.67
2023-01-26T00:28:37.589Z,30.17
2023-01-26T00:29:10.219Z,30.42
2023-01-26T00:29:42.089Z,29.87
2023-01-26T00:30:14.473Z,31.02
2023-01-26T00:30:46.369Z,37.00
2023-01-26T00:31:20.745Z,33.40
2023-01-26T00:31:52.615Z,29.73
2023-01-26T00:32:26.086Z,33.47
2023-01-26T00:32:58.179Z,33.40
2023-01-26T00:33:30.587Z,31.23
2023-01-26T00:34:02.454Z,31.12
2023-01-26T00:34:34.323Z,31.27
2023-01-26T00:35:06.778Z,32.13
2023-01-26T00:35:49.968Z,29.20
2023-01-26T00:36:22.194Z,31.50
2023-01-26T00:36:54.009Z,29.30
2023-01-26T00:37:26.002Z,30.95
2023-01-26T00:37:57.854Z,33.25
2023-01-26T00:38:29.842Z,32.53
2023-01-26T00:39:02.792Z,25.83
2023-01-26T00:39:34.698Z,29.12
2023-01-26T00:40:06.921Z,28.10
2023-01-26T00:40:40.042Z,32.10
2023-01-26T00:41:34.568Z,32.70
2023-01-26T00:42:06.485Z,31.15
2023-01-26T00:42:39.846Z,33.47
2023-01-26T00:43:11.744Z,29.50
2023-01-26T00:43:43.591Z,27.77
2023-01-26T00:44:15.781Z,26.92
2023-01-26T00:44:47.808Z,26.12
2023-01-26T00:45:19.761Z,26.42
2023-01-26T00:45:51.648Z,32.40
2023-01-26T00:46:24.884Z,27.48
2023-01-26T00:46:56.769Z,35.63
2023-01-26T00:47:28.700Z,28.80
2023-01-26T00:48:02.066Z,30.60
2023-01-26T00:48:34.421Z,29.12
2023-01-26T00:49:06.379Z,33.13
2023-01-26T00:49:38.787Z,29.80
2023-01-26T00:50:11.692Z,31.08
2023-01-26T00:50:43.827Z,31.67
2023-01-26T00:51:15.708Z,25.25
2023-01-26T00:51:47.631Z,29.40
2023-01-26T00:52:19.649Z,28.92
2023-01-26T00:52:51.555Z,27.95
2023-01-26T00:53:23.413Z,26.33
2023-01-26T00:53:55.429Z,26.67
2023-01-26T00:54:28.566Z,28.60
2023-01-26T00:55:00.752Z,26.45
2023-01-26T00:55:32.988Z,29.55
2023-01-26T00:56:05.271Z,25.75
2023-01-26T00:56:38.308Z,28.98
2023-01-26T00:57:11.020Z,29.67
2023-01-26T00:57:42.916Z,33.35
2023-01-26T00:58:14.784Z,32.20
2023-01-26T00:58:46.886Z,30.62
2023-01-26T00:59:18.796Z,33.70
2023-01-26T00:59:51.057Z,31.83
2023-01-26T01:00:23.213Z,29.65
2023-01-26T01:00:55.148Z,27.35
2023-01-26T01:01:27.047Z,27.80
2023-01-26T01:02:01.354Z,27.08
2023-01-26T01:02:33.298Z,28.48
2023-01-26T01:03:07.050Z,28.10
2023-01-26T01:03:38.952Z,23.45
2023-01-26T01:04:10.960Z,25.20
2023-01-26T01:04:42.836Z,21.33
2023-01-26T01:05:14.792Z,24.63
2023-01-26T01:05:46.942Z,25.27
2023-01-26T01:06:18.937Z,23.58
2023-01-26T01:06:51.701Z,26.55
2023-01-26T01:07:23.678Z,26.62
2023-01-26T01:07:55.932Z,25.15
2023-01-26T01:08:27.823Z,23.20
2023-01-26T01:08:59.713Z,22.05
2023-01-26T01:09:32.902Z,26.67
2023-01-26T01:10:05.244Z,24.17
2023-01-26T01:10:38.065Z,26.05
2023-01-26T01:11:11.760Z,23.05
2023-01-26T01:11:45.659Z,23.73
2023-01-26T01:12:19.723Z,24.45
2023-01-26T01:12:52.823Z,24.75
2023-01-26T01:13:24.752Z,27.75
2023-01-26T01:13:56.660Z,28.08
2023-01-26T01:14:29.889Z,23.38
2023-01-26T01:15:02.007Z,21.85
2023-01-26T01:15:33.853Z,25.37
2023-01-26T01:16:07.760Z,24.50
2023-01-26T01:16:40.977Z,20.70
2023-01-26T01:17:13.900Z,22.33
2023-01-26T01:17:45.814Z,24.98
2023-01-26T01:18:17.652Z,20.77
2023-01-26T01:18:55.972Z,24.55
2023-01-26T01:19:28.537Z,24.12
2023-01-26T01:20:00.445Z,23.02
2023-01-26T01:20:32.339Z,22.62
2023-01-26T01:21:12.787Z,23.38
2023-01-26T01:21:45.578Z,25.33
2023-01-26T01:22:18.812Z,22.02
2023-01-26T01:22:52.116Z,22.33
2023-01-26T01:23:24.050Z,25.08
2023-01-26T01:23:56.000Z,22.45
2023-01-26T01:24:27.881Z,20.92
2023-01-26T01:25:00.116Z,19.20
2023-01-26T01:25:32.019Z,27.15
2023-01-26T01:26:04.916Z,22.45
2023-01-26T01:26:36.777Z,24.40
2023-01-26T01:27:08.950Z,22.92
2023-01-26T01:27:41.368Z,22.83
2023-01-26T01:28:13.320Z,20.40
2023-01-26T01:28:45.557Z,20.67
2023-01-26T01:29:17.435Z,22.08
2023-01-26T01:29:50.704Z,24.17
2023-01-26T01:30:23.229Z,25.92
2023-01-26T01:30:55.159Z,23.73
2023-01-26T01:31:29.366Z,24.75
2023-01-26T01:32:01.463Z,22.90
2023-01-26T01:32:36.145Z,21.45
2023-01-26T01:33:08.145Z,23.40
2023-01-26T01:33:40.360Z,21.10
2023-01-26T01:34:12.261Z,23.98
2023-01-26T01:34:48.137Z,25.50
2023-01-26T01:35:20.030Z,27.15
2023-01-26T01:36:00.305Z,25.23
2023-01-26T01:36:32.304Z,28.52
2023-01-26T01:37:04.160Z,28.95
2023-01-26T01:37:36.893Z,28.55
2023-01-26T01:38:08.846Z,35.20
2023-01-26T01:38:41.897Z,39.05
2023-01-26T01:39:14.422Z,38.63
2023-01-26T01:39:46.315Z,37.35
2023-01-26T01:40:18.380Z,47.85
2023-01-26T01:40:50.321Z,44.72
2023-01-26T01:41:25.831Z,50.08
2023-01-26T01:41:57.865Z,47.70
2023-01-26T01:42:29.768Z,50.85
2023-01-26T01:43:01.976Z,55.08
2023-01-26T01:43:34.700Z,48.67
2023-01-26T01:44:24.536Z,47.03
2023-01-26T01:45:24.600Z,46.10
2023-01-26T01:45:56.773Z,42.83
2023-01-26T01:46:37.093Z,39.40
2023-01-26T01:47:19.778Z,39.63
2023-01-26T01:47:55.501Z,39.38
2023-01-26T01:48:47.252Z,38.17
2023-01-26T01:49:28.456Z,37.50
2023-01-26T01:50:04.326Z,34.17
2023-01-26T01:50:39.671Z,33.40
2023-01-26T01:51:30.724Z,35.13
2023-01-26T01:52:05.362Z,30.88
2023-01-26T01:52:37.681Z,31.42
2023-01-26T01:53:13.433Z,28.15
2023-01-26T01:53:50.381Z,30.30
2023-01-26T01:54:30.301Z,25.55
2023-01-26T01:55:12.536Z,25.55
2023-01-26T01:55:45.537Z,28.50
2023-01-26T01:56:22.500Z,30.40
2023-01-26T01:56:58.275Z,29.48
2023-01-26T01:57:45.079Z,31.95
2023-01-26T01:58:17.114Z,28.50
2023-01-26T01:58:54.417Z,25.42
2023-01-26T01:59:26.819Z,25.85
2023-01-26T02:00:10.124Z,25.30
2023-01-26T02:00:44.821Z,24.87
2023-01-26T02:01:17.202Z,25.08
2023-01-26T02:01:52.303Z,23.10
2023-01-26T02:02:24.360Z,25.27
2023-01-26T02:03:21.439Z,24.48
2023-01-26T02:04:00.206Z,25.27
2023-01-26T02:05:20.657Z,23.33
2023-01-26T02:06:13.516Z,26.10
2023-01-26T02:06:56.014Z,23.35
2023-01-26T02:07:31.522Z,24.87
2023-01-26T02:08:04.590Z,25.92
2023-01-26T02:08:53.785Z,28.40
2023-01-26T02:09:57.252Z,28.98
2023-01-26T02:10:30.319Z,25.88
2023-01-26T02:11:10.592Z,32.33
2023-01-26T02:11:45.049Z,30.88
2023-01-26T02:12:20.859Z,32.25
2023-01-26T02:12:56.723Z,27.10
2023-01-26T02:13:31.713Z,31.98
2023-01-26T02:14:06.954Z,31.25
2023-01-26T02:14:39.557Z,29.23
2023-01-26T02:15:11.970Z,34.28
2023-01-26T02:15:44.420Z,29.63
2023-01-26T02:16:17.207Z,28.35
2023-01-26T02:16:49.179Z,29.95
2023-01-26T02:17:21.565Z,27.65
2023-01-26T02:17:54.949Z,27.10
2023-01-26T02:18:28.631Z,27.48
2023-01-26T02:19:01.032Z,29.00
2023-01-26T02:20:11.581Z,31.60
2023-01-26T02:21:06.974Z,25.55
2023-01-26T02:21:40.299Z,27.45
2023-01-26T02:22:22.775Z,25.75
2023-01-26T02:22:57.587Z,26.77
2023-01-26T02:23:51.230Z,25.67
2023-01-26T02:24:28.919Z,26.83
2023-01-26T02:25:07.140Z,27.00
2023-01-26T02:25:54.190Z,25.65
2023-01-26T02:26:36.916Z,23.90
2023-01-26T02:27:08.973Z,25.12
2023-01-26T02:27:41.443Z,25.25
2023-01-26T02:28:14.009Z,23.75
2023-01-26T02:28:47.163Z,26.65
2023-01-26T02:29:19.039Z,21.62
2023-01-26T02:29:51.654Z,24.58
2023-01-26T02:30:24.678Z,25.48
2023-01-26T02:30:57.315Z,24.98
2023-01-26T02:31:30.366Z,26.23
2023-01-26T02:32:03.002Z,28.02
2023-01-26T02:32:34.901Z,23.70
2023-01-26T02:33:08.469Z,23.35
2023-01-26T02:33:41.798Z,26.05
2023-01-26T02:34:13.661Z,28.45
2023-01-26T02:34:45.944Z,28.73
2023-01-26T02:35:17.900Z,28.92
2023-01-26T02:35:50.285Z,24.65
2023-01-26T02:36:24.575Z,26.00
2023-01-26T02:36:58.840Z,26.80
2023-01-26T02:37:30.763Z,24.27
2023-01-26T02:38:02.698Z,27.73
2023-01-26T02:38:43.770Z,23.62
2023-01-26T02:39:56.731Z,23.85
2023-01-26T02:40:46.575Z,24.00
2023-01-26T02:41:39.151Z,22.23
2023-01-26T02:42:30.175Z,21.92
2023-01-26T02:43:02.597Z,27.30
2023-01-26T02:43:35.553Z,23.30
2023-01-26T02:44:11.423Z,23.85
2023-01-26T02:44:44.853Z,23.02
2023-01-26T02:45:17.362Z,24.73
2023-01-26T02:45:49.795Z,26.27
2023-01-26T02:46:21.717Z,29.55
2023-01-26T02:46:54.133Z,27.60
2023-01-26T02:47:26.174Z,24.77
2023-01-26T02:47:59.819Z,25.85
2023-01-26T02:48:51.660Z,27.77
2023-01-26T02:49:42.477Z,24.48
2023-01-26T02:50:14.982Z,25.17
2023-01-26T02:50:47.720Z,28.08
2023-01-26T02:51:20.088Z,30.42
2023-01-26T02:51:52.300Z,24.20
2023-01-26T02:52:27.192Z,26.12
2023-01-26T02:53:00.008Z,28.70
2023-01-26T02:53:32.503Z,26.55
2023-01-26T02:54:04.787Z,28.15
2023-01-26T02:55:11.788Z,28.45
2023-01-26T02:55:43.982Z,27.83
2023-01-26T02:56:15.815Z,29.40
2023-01-26T02:56:47.790Z,32.00
2023-01-26T02:57:19.729Z,29.17
2023-01-26T02:57:59.452Z,29.12
2023-01-26T02:58:31.658Z,24.67
2023-01-26T02:59:03.541Z,28.60
2023-01-26T02:59:35.639Z,31.12
2023-01-26T03:00:19.122Z,28.35
2023-01-26T03:00:51.483Z,26.62
2023-01-26T03:01:23.441Z,25.08
2023-01-26T03:01:57.230Z,27.25
2023-01-26T03:02:29.384Z,26.50
2023-01-26T03:03:05.243Z,25.55
2023-01-26T03:03:42.867Z,27.62
2023-01-26T03:04:14.799Z,27.05
2023-01-26T03:04:46.760Z,26.55
2023-01-26T03:05:19.346Z,25.27
2023-01-26T03:05:52.263Z,25.95
2023-01-26T03:06:24.123Z,25.42
2023-01-26T03:06:56.652Z,23.02
2023-01-26T03:07:28.825Z,27.35
2023-01-26T03:08:01.255Z,25.08
2023-01-26T03:08:35.115Z,23.65
2023-01-26T03:09:06.979Z,22.27
2023-01-26T03:09:38.899Z,22.33
2023-01-26T03:10:13.946Z,21.70
2023-01-26T03:10:47.598Z,21.55
2023-01-26T03:11:19.863Z,19.75
2023-01-26T03:11:51.772Z,20.33
2023-01-26T03:12:23.663Z,23.70
2023-01-26T03:12:55.614Z,19.70
2023-01-26T03:13:27.557Z,20.10
2023-01-26T03:14:03.206Z,22.25
2023-01-26T03:14:35.141Z,23.45
2023-01-26T03:15:26.342Z,23.52
2023-01-26T03:16:35.396Z,23.15
2023-01-26T03:17:08.530Z,24.17
2023-01-26T03:17:41.869Z,20.12
2023-01-26T03:18:35.063Z,20.55
2023-01-26T03:19:27.529Z,25.48
2023-01-26T03:20:18.180Z,24.12
2023-01-26T03:21:08.495Z,22.23
2023-01-26T03:21:59.590Z,24.10
2023-01-26T03:22:50.009Z,24.45
2023-01-26T03:23:40.330Z,24.98
2023-01-26T03:24:31.764Z,24.67
2023-01-26T03:25:22.598Z,21.42
2023-01-26T03:26:15.866Z,21.08
2023-01-26T03:27:07.056Z,21.45
2023-01-26T03:27:45.366Z,28.45
2023-01-26T03:28:22.292Z,35.08
2023-01-26T03:28:54.301Z,32.95
2023-01-26T03:29:27.496Z,29.33
2023-01-26T03:29:59.945Z,27.65
2023-01-26T03:30:32.172Z,26.92
2023-01-26T03:31:06.980Z,28.05
2023-01-26T03:31:39.076Z,30.85
2023-01-26T03:32:12.201Z,25.37
2023-01-26T03:32:45.399Z,27.37
2023-01-26T03:33:19.098Z,26.62
2023-01-26T03:33:51.027Z,22.52
2023-01-26T03:34:22.969Z,22.35
2023-01-26T03:34:54.927Z,26.65
2023-01-26T03:35:28.730Z,23.15
2023-01-26T03:36:00.751Z,24.12
2023-01-26T03:36:32.840Z,26.27
2023-01-26T03:37:05.237Z,22.42
2023-01-26T03:37:40.585Z,23.60
2023-01-26T03:38:14.830Z,20.30
2023-01-26T03:38:47.234Z,24.95
2023-01-26T03:39:37.688Z,23.38
2023-01-26T03:40:30.751Z,23.17
2023-01-26T03:41:21.183Z,22.87
2023-01-26T03:42:12.381Z,23.08
2023-01-26T03:43:03.734Z,23.30
2023-01-26T03:43:54.186Z,20.83
2023-01-26T03:44:44.930Z,21.35
2023-01-26T03:45:35.448Z,21.05
2023-01-26T03:46:27.448Z,21.62
2023-01-26T03:47:18.829Z,25.80
2023-01-26T03:48:09.547Z,24.40
2023-01-26T03:49:00.325Z,23.75
2023-01-26T03:49:50.718Z,23.90
2023-01-26T03:50:41.666Z,22.95
2023-01-26T03:51:32.014Z,26.60
2023-01-26T03:52:22.462Z,23.65
2023-01-26T03:53:13.805Z,26.50
2023-01-26T03:54:04.512Z,25.75
2023-01-26T03:54:55.436Z,24.17
2023-01-26T03:55:45.892Z,21.67
2023-01-26T03:56:32.311Z,25.62
2023-01-26T03:57:05.465Z,22.60
2023-01-26T03:57:38.485Z,23.52
2023-01-26T03:58:10.658Z,23.05
2023-01-26T03:58:43.739Z,21.90
2023-01-26T03:59:16.701Z,22.95
2023-01-26T03:59:48.864Z,20.40
2023-01-26T04:00:21.663Z,23.20
2023-01-26T04:00:54.750Z,24.08
2023-01-26T04:01:33.076Z,23.75
2023-01-26T04:02:31.474Z,24.35
2023-01-26T04:03:22.189Z,22.10
2023-01-26T04:04:14.698Z,23.17
2023-01-26T04:05:05.428Z,19.75
2023-01-26T04:05:57.076Z,20.88
2023-01-26T04:07:08.846Z,23.12
2023-01-26T04:07:59.668Z,25.35
2023-01-26T04:08:31.711Z,23.42
2023-01-26T04:09:04.219Z,21.83
2023-01-26T04:09:39.605Z,19.40
2023-01-26T04:10:11.877Z,22.13
2023-01-26T04:10:43.917Z,20.25
2023-01-26T04:11:15.823Z,22.27
2023-01-26T04:11:48.166Z,20.98
2023-01-26T04:12:20.816Z,21.45
2023-01-26T04:13:11.961Z,25.33
2023-01-26T04:14:03.211Z,22.52
2023-01-26T04:14:53.988Z,18.62
2023-01-26T04:15:44.750Z,22.33
2023-01-26T04:16:35.340Z,21.50
2023-01-26T04:17:26.622Z,24.52
2023-01-26T04:18:17.675Z,27.20
2023-01-26T04:19:08.646Z,23.33
2023-01-26T04:19:59.023Z,19.98
2023-01-26T04:20:49.602Z,22.85
2023-01-26T04:21:31.876Z,19.80
2023-01-26T04:22:04.090Z,16.70
2023-01-26T04:22:45.249Z,25.35
2023-01-26T04:23:20.608Z,20.88
2023-01-26T04:23:57.373Z,20.27
2023-01-26T04:24:29.588Z,19.83
2023-01-26T04:25:01.538Z,19.17
2023-01-26T04:25:33.634Z,24.35
2023-01-26T04:26:05.560Z,19.00
2023-01-26T04:26:38.634Z,19.65
2023-01-26T04:27:11.789Z,21.62
2023-01-26T04:27:45.965Z,25.70
2023-01-26T04:28:18.677Z,24.17
2023-01-26T04:28:51.298Z,28.35
2023-01-26T04:29:24.066Z,24.70
2023-01-26T04:29:56.172Z,23.00
2023-01-26T04:30:28.213Z,21.48
2023-01-26T04:31:00.202Z,20.48
2023-01-26T04:31:32.971Z,21.40
2023-01-26T04:32:05.061Z,23.12
2023-01-26T04:32:38.164Z,20.52
2023-01-26T04:33:10.592Z,26.95
2023-01-26T04:33:43.480Z,24.50
2023-01-26T04:34:16.087Z,20.90
2023-01-26T04:34:48.290Z,26.15
2023-01-26T04:35:23.322Z,22.92
2023-01-26T04:35:55.227Z,20.17
2023-01-26T04:36:27.862Z,24.12
2023-01-26T04:37:00.007Z,19.92
2023-01-26T04:37:32.919Z,22.27
2023-01-26T04:38:05.813Z,22.05
2023-01-26T04:38:37.827Z,22.10
2023-01-26T04:39:10.897Z,23.60
2023-01-26T04:39:43.188Z,20.55
2023-01-26T04:40:15.265Z,20.80
2023-01-26T04:40:53.848Z,24.90
2023-01-26T04:41:26.319Z,22.70
2023-01-26T04:41:58.937Z,25.70
2023-01-26T04:42:31.031Z,19.52
2023-01-26T04:43:04.362Z,17.50
2023-01-26T04:43:36.835Z,23.60
2023-01-26T04:44:09.728Z,19.20
2023-01-26T04:44:42.620Z,20.73
2023-01-26T04:45:14.616Z,19.95
2023-01-26T04:46:05.063Z,17.70
2023-01-26T04:46:37.281Z,19.83
2023-01-26T04:47:09.288Z,20.10
2023-01-26T04:47:42.343Z,22.35
2023-01-26T04:48:14.275Z,24.75
2023-01-26T04:48:46.631Z,17.83
2023-01-26T04:49:18.601Z,18.65
2023-01-26T04:49:50.901Z,19.37
2023-01-26T04:50:24.100Z,25.48
2023-01-26T04:50:57.747Z,20.80
2023-01-26T04:51:29.944Z,19.27
2023-01-26T04:52:01.900Z,20.20
2023-01-26T04:52:34.614Z,19.27
2023-01-26T04:53:06.456Z,18.15
2023-01-26T04:53:38.547Z,18.15
2023-01-26T04:54:10.508Z,19.02
2023-01-26T04:54:42.799Z,18.25
2023-01-26T04:55:15.144Z,16.23
2023-01-26T04:55:47.400Z,24.02
2023-01-26T04:56:24.246Z,21.58
2023-01-26T04:56:56.362Z,19.33
2023-01-26T04:57:28.279Z,18.50
2023-01-26T04:58:00.381Z,20.98
2023-01-26T04:58:33.255Z,19.23
2023-01-26T04:59:07.870Z,23.95
2023-01-26T04:59:40.544Z,19.60
2023-01-26T05:00:14.387Z,29.70
2023-01-26T05:00:52.398Z,34.97
2023-01-26T05:01:24.935Z,30.17
2023-01-26T05:01:57.338Z,23.67
2023-01-26T05:02:29.319Z,24.98
2023-01-26T05:03:01.451Z,21.50
2023-01-26T05:03:33.522Z,21.20
2023-01-26T05:04:06.583Z,19.33
2023-01-26T05:04:38.830Z,18.05
2023-01-26T05:05:10.831Z,19.25
2023-01-26T05:05:42.759Z,17.98
2023-01-26T05:06:15.378Z,20.90
2023-01-26T05:06:49.104Z,29.98
2023-01-26T05:07:21.038Z,24.87
2023-01-26T05:07:53.337Z,23.70
2023-01-26T05:08:26.404Z,23.10
2023-01-26T05:08:59.250Z,21.60
2023-01-26T05:09:31.954Z,24.70
2023-01-26T05:10:05.948Z,25.12
2023-01-26T05:10:38.607Z,31.33
2023-01-26T05:11:16.562Z,31.80
2023-01-26T05:11:49.244Z,30.12
2023-01-26T05:12:33.660Z,27.95
2023-01-26T05:13:09.715Z,26.50
2023-01-26T05:13:42.667Z,24.15
2023-01-26T05:14:15.994Z,22.90
2023-01-26T05:14:48.311Z,23.92
2023-01-26T05:15:20.540Z,22.00
2023-01-26T05:15:54.190Z,21.95
2023-01-26T05:16:28.747Z,19.45
2023-01-26T05:17:02.074Z,19.27
2023-01-26T05:17:36.165Z,17.58
2023-01-26T05:18:11.473Z,22.67
2023-01-26T05:18:44.383Z,20.48
2023-01-26T05:19:17.309Z,21.10
2023-01-26T05:19:49.484Z,17.65
2023-01-26T05:20:21.896Z,18.75
2023-01-26T05:20:54.186Z,19.15
2023-01-26T05:21:27.516Z,20.00
2023-01-26T05:22:00.350Z,21.12
2023-01-26T05:22:37.064Z,18.52
2023-01-26T05:23:13.297Z,19.33
2023-01-26T05:23:45.418Z,16.45
2023-01-26T05:24:18.451Z,16.55
2023-01-26T05:24:50.456Z,15.57
2023-01-26T05:25:23.177Z,17.12
2023-01-26T05:25:55.374Z,17.25
2023-01-26T05:26:27.344Z,16.87
2023-01-26T05:27:18.713Z,16.42
2023-01-26T05:27:50.779Z,18.62
2023-01-26T05:28:22.828Z,23.02
2023-01-26T05:28:55.812Z,16.27
2023-01-26T05:29:27.977Z,18.42
2023-01-26T05:30:02.552Z,16.52
2023-01-26T05:30:35.218Z,18.20
2023-01-26T05:31:07.447Z,20.85
2023-01-26T05:31:39.934Z,17.12
2023-01-26T05:32:12.465Z,17.23
2023-01-26T05:32:44.371Z,16.80
2023-01-26T05:33:16.921Z,15.93
2023-01-26T05:33:49.093Z,17.55
2023-01-26T05:34:23.795Z,16.87
2023-01-26T05:34:56.506Z,18.05
2023-01-26T05:35:28.966Z,19.62
2023-01-26T05:36:06.049Z,18.75
2023-01-26T05:36:38.276Z,21.08
2023-01-26T05:37:12.545Z,17.40
2023-01-26T05:37:48.956Z,18.02
2023-01-26T05:38:21.709Z,20.17
2023-01-26T05:38:53.859Z,18.92
2023-01-26T05:39:26.325Z,23.38
2023-01-26T05:39:58.519Z,19.05
2023-01-26T05:40:31.203Z,20.02
2023-01-26T05:41:03.200Z,18.42
2023-01-26T05:41:36.474Z,16.02
2023-01-26T05:42:10.776Z,18.52
2023-01-26T05:42:44.092Z,17.67
2023-01-26T05:43:16.995Z,22.30
2023-01-26T05:43:49.092Z,19.52
2023-01-26T05:44:21.429Z,21.77
2023-01-26T05:44:53.769Z,19.80
2023-01-26T05:45:26.971Z,18.70
2023-01-26T05:46:00.454Z,22.73
2023-01-26T05:46:32.446Z,20.00
2023-01-26T05:47:04.875Z,19.42
2023-01-26T05:47:36.944Z,24.95
2023-01-26T05:48:08.879Z,20.65
2023-01-26T05:48:41.453Z,19.83
2023-01-26T05:49:13.338Z,19.75
2023-01-26T05:49:46.434Z,20.27
2023-01-26T05:50:19.843Z,32.53
2023-01-26T05:51:06.593Z,20.58
2023-01-26T05:51:38.989Z,24.10
2023-01-26T05:52:17.395Z,18.30
2023-01-26T05:52:49.947Z,22.05
2023-01-26T05:53:22.200Z,19.98
2023-01-26T05:53:54.503Z,25.58
2023-01-26T05:54:26.429Z,24.12
2023-01-26T05:55:01.109Z,23.00
2023-01-26T05:55:33.074Z,19.30
2023-01-26T05:56:05.215Z,20.52
2023-01-26T05:56:37.729Z,16.98
2023-01-26T05:57:10.494Z,20.05
2023-01-26T05:57:42.760Z,21.40
2023-01-26T05:58:14.915Z,21.98
2023-01-26T05:58:46.777Z,22.70
2023-01-26T05:59:19.318Z,21.33
2023-01-26T05:59:51.534Z,23.77
2023-01-26T06:00:23.856Z,21.20
2023-01-26T06:00:56.857Z,26.12
2023-01-26T06:01:29.723Z,21.10
2023-01-26T06:02:02.007Z,22.35
2023-01-26T06:02:34.572Z,19.87
2023-01-26T06:03:06.677Z,18.98
2023-01-26T06:03:38.727Z,21.87
2023-01-26T06:04:10.794Z,19.85
2023-01-26T06:04:43.061Z,23.40
2023-01-26T06:05:14.945Z,21.42
2023-01-26T06:05:54.019Z,21.27
2023-01-26T06:06:26.784Z,21.10
2023-01-26T06:07:01.641Z,19.25
2023-01-26T06:07:33.938Z,21.27
2023-01-26T06:08:06.705Z,16.17
2023-01-26T06:08:39.569Z,21.12
2023-01-26T06:09:13.280Z,17.52
2023-01-26T06:09:47.518Z,18.12
2023-01-26T06:10:19.855Z,16.02
2023-01-26T06:10:51.976Z,22.20
2023-01-26T06:11:24.023Z,19.77
2023-01-26T06:12:00.560Z,33.22
2023-01-26T06:12:35.541Z,35.83
2023-01-26T06:13:07.505Z,32.88
2023-01-26T06:13:40.601Z,30.75
2023-01-26T06:14:13.061Z,22.13
2023-01-26T06:14:47.120Z,25.37
2023-01-26T06:15:19.385Z,17.52
2023-01-26T06:15:51.524Z,16.80
2023-01-26T06:16:25.305Z,18.27
2023-01-26T06:16:57.326Z,16.02
2023-01-26T06:17:29.745Z,15.50
2023-01-26T06:18:02.285Z,17.15
2023-01-26T06:18:36.443Z,16.40
2023-01-26T06:19:10.484Z,19.90
2023-01-26T06:19:43.187Z,21.83
2023-01-26T06:20:15.137Z,13.45
2023-01-26T06:20:47.587Z,16.62
2023-01-26T06:21:19.520Z,16.75
2023-01-26T06:21:53.418Z,18.25
2023-01-26T06:22:25.562Z,18.83
2023-01-26T06:23:01.630Z,16.17
2023-01-26T06:23:33.868Z,15.40
2023-01-26T06:24:06.945Z,15.25
2023-01-26T06:24:39.233Z,14.13
2023-01-26T06:25:11.144Z,18.42
2023-01-26T06:25:43.085Z,14.90
2023-01-26T06:26:15.316Z,22.98
2023-01-26T06:26:49.898Z,16.17
2023-01-26T06:27:22.070Z,15.50
2023-01-26T06:27:58.164Z,28.85
2023-01-26T06:28:31.849Z,31.77
2023-01-26T06:29:03.997Z,24.67
2023-01-26T06:29:36.235Z,16.20
2023-01-26T06:30:10.192Z,17.87
2023-01-26T06:30:42.402Z,20.10
2023-01-26T06:31:14.820Z,22.27
2023-01-26T06:31:47.694Z,22.73
2023-01-26T06:32:19.785Z,20.95
2023-01-26T06:32:53.458Z,16.77
2023-01-26T06:33:26.212Z,20.00
2023-01-26T06:33:59.849Z,21.08
2023-01-26T06:34:32.994Z,19.02
2023-01-26T06:35:06.824Z,19.95
2023-01-26T06:35:38.847Z,17.05
2023-01-26T06:36:13.422Z,15.50
2023-01-26T06:36:45.610Z,13.95
2023-01-26T06:37:18.121Z,18.45
2023-01-26T06:37:50.543Z,13.52
2023-01-26T06:38:22.996Z,18.62
2023-01-26T06:38:56.702Z,14.55
2023-01-26T06:39:29.578Z,16.05
2023-01-26T06:40:03.660Z,17.08
2023-01-26T06:40:35.768Z,20.20
2023-01-26T06:41:09.641Z,15.52
2023-01-26T06:41:44.029Z,17.80
2023-01-26T06:42:15.948Z,22.70
2023-01-26T06:42:51.619Z,16.02
2023-01-26T06:43:23.949Z,18.95
2023-01-26T06:43:55.949Z,20.15
2023-01-26T06:44:27.854Z,32.90
2023-01-26T06:45:00.263Z,32.38
2023-01-26T06:45:32.134Z,22.35
2023-01-26T06:46:06.519Z,19.08
2023-01-26T06:46:39.953Z,16.55
2023-01-26T06:47:13.177Z,18.23
2023-01-26T06:47:47.120Z,15.07
2023-01-26T06:48:19.234Z,17.52
2023-01-26T06:48:51.385Z,15.75
2023-01-26T06:49:23.981Z,15.48
2023-01-26T06:49:56.082Z,17.77
2023-01-26T06:50:33.999Z,19.05
2023-01-26T06:51:28.465Z,16.02
2023-01-26T06:52:05.647Z,19.02
2023-01-26T06:52:42.457Z,19.70
2023-01-26T06:53:38.546Z,23.73
2023-01-26T06:54:12.427Z,16.10
2023-01-26T06:54:48.740Z,16.05
2023-01-26T06:55:28.405Z,15.48
2023-01-26T06:56:02.790Z,19.08
2023-01-26T06:56:36.062Z,16.17
2023-01-26T06:57:09.155Z,17.85
2023-01-26T06:57:41.311Z,18.37
2023-01-26T06:58:13.412Z,20.33
2023-01-26T06:58:47.792Z,20.40
2023-01-26T06:59:20.509Z,18.92
2023-01-26T06:59:52.849Z,18.87
2023-01-26T07:00:27.471Z,18.50
2023-01-26T07:01:00.672Z,18.02
2023-01-26T07:01:39.497Z,16.52
2023-01-26T07:02:20.545Z,13.07
2023-01-26T07:02:52.498Z,16.17
2023-01-26T07:03:24.573Z,16.02
2023-01-26T07:03:56.449Z,14.38
2023-01-26T07:04:28.344Z,19.42
2023-01-26T07:05:00.253Z,18.45
2023-01-26T07:05:32.978Z,19.67
2023-01-26T07:06:05.979Z,13.10
2023-01-26T07:06:38.147Z,15.32
2023-01-26T07:07:10.046Z,14.63
2023-01-26T07:07:41.962Z,14.15
2023-01-26T07:08:13.963Z,17.30
2023-01-26T07:08:46.528Z,15.57
2023-01-26T07:09:18.463Z,14.95
2023-01-26T07:09:50.544Z,15.90
2023-01-26T07:10:22.422Z,17.60
2023-01-26T07:10:54.355Z,15.15
2023-01-26T07:11:26.546Z,15.88
2023-01-26T07:11:58.787Z,15.48
2023-01-26T07:12:44.805Z,13.93
2023-01-26T07:13:17.106Z,15.18
2023-01-26T07:13:49.006Z,17.37
2023-01-26T07:14:20.913Z,15.48
2023-01-26T07:14:52.837Z,16.15
2023-01-26T07:15:24.777Z,15.40
2023-01-26T07:16:08.845Z,19.67
2023-01-26T07:16:40.903Z,16.70
2023-01-26T07:17:13.197Z,17.95
2023-01-26T07:17:45.050Z,22.70
2023-01-26T07:18:17.016Z,18.02
2023-01-26T07:18:48.921Z,16.12
2023-01-26T07:19:20.894Z,18.67
2023-01-26T07:19:52.975Z,18.35
2023-01-26T07:20:25.057Z,16.40
2023-01-26T07:21:01.712Z,19.20
2023-01-26T07:21:35.517Z,17.52
2023-01-26T07:22:07.432Z,16.58
2023-01-26T07:22:39.644Z,17.27
2023-01-26T07:23:11.549Z,20.37
2023-01-26T07:23:43.466Z,20.95
2023-01-26T07:24:15.406Z,19.40
2023-01-26T07:24:47.319Z,20.67
2023-01-26T07:25:19.683Z,19.83
2023-01-26T07:25:51.622Z,19.90
2023-01-26T07:26:23.615Z,21.20
2023-01-26T07:26:55.979Z,18.17
2023-01-26T07:27:27.856Z,19.73
2023-01-26T07:28:00.173Z,22.83
2023-01-26T07:28:34.258Z,19.17
2023-01-26T07:29:06.376Z,16.23
2023-01-26T07:29:38.264Z,16.58
2023-01-26T07:30:14.264Z,20.50
2023-01-26T07:30:46.257Z,15.48
2023-01-26T07:31:18.242Z,19.30
2023-01-26T07:31:50.805Z,16.50
2023-01-26T07:32:22.790Z,16.75
2023-01-26T07:32:54.682Z,18.33
2023-01-26T07:33:29.063Z,15.93